Kitanomaru — JD2835 — position and weather

sailwx.info

Track history (hours):
 
Tides and Currents Weather Stations Pressure Air Temp Water Temp Dewpoint Dewpoint Depression Visibility Wind Speed Wind Dir Waves Ship Positions

Kitanomaru

Last reported at 2017-Jul-26 08:29 UTC. Time now 2017-Jul-26 08:46 UTC.
Position N 35°28' E 139°58'.

Length 39 m; draft 4 m.

Type: Tug. MMSI: 431000773.

Date/timePositionNaut miles runAvg speedWind from/ knotsBaromVisibWave heightAir tempDewpointWater temp
2017-Jul-26 08:29N 35°28' E 139°58'1 0.5
2017-Jul-26 06:17N 35°29' E 139°59'0 0.0
2017-Jul-26 04:35N 35°29' E 139°59'0 0.0
2017-Jul-26 04:24N 35°29' E 139°59'0 0.0
2017-Jul-26 03:44N 35°29' E 139°59'0 0.0
2017-Jul-26 03:25N 35°29' E 139°59'0 0.0
2017-Jul-26 02:59N 35°29' E 139°59'0 0.9
2017-Jul-26 02:30N 35°28' E 139°58'0 0.3
2017-Jul-26 01:57N 35°28' E 139°58'0 0.0
2017-Jul-25 04:21N 35°28' E 139°58'0 0.6
2017-Jul-25 04:00N 35°29' E 139°58'2 3.5
2017-Jul-25 03:30N 35°30' E 139°57'2 4.5
2017-Jul-25 02:57N 35°29' E 139°54'3 5.8
2017-Jul-25 02:28N 35°31' E 139°57'3 0.1
2017-Jul-24 02:52N 35°29' E 140°00'0 0.2
2017-Jul-24 01:26N 35°29' E 140°00'1 2.2
2017-Jul-24 00:47N 35°30' E 139°59'2 2.6
2017-Jul-23 23:52N 35°32' E 139°59'0 0.5
2017-Jul-23 23:30N 35°32' E 139°60'3 0.1
2017-Jul-23 04:35N 35°32' E 140°03'4 7.7
2017-Jul-23 04:05N 35°32' E 139°58'0 5.4
2017-Jul-23 04:01N 35°32' E 139°58'3 0.1
2017-Jul-22 04:52N 35°30' E 140°01'0 0.6
2017-Jul-22 04:30N 35°30' E 140°01'3 5.8
2017-Jul-22 04:00N 35°31' E 139°58'1 1.0
2017-Jul-22 03:25N 35°32' E 139°58'1 0.2
2017-Jul-21 21:31N 35°33' E 139°60'0 2.8
2017-Jul-21 21:29N 35°33' E 139°60'3 0.3
2017-Jul-21 09:28N 35°31' E 139°56'0 0.4
2017-Jul-21 09:01N 35°31' E 139°56'0 0.1
2017-Jul-21 08:30N 35°31' E 139°56'0 0.0
2017-Jul-21 08:00N 35°31' E 139°56'0 0.1
2017-Jul-21 07:30N 35°31' E 139°56'0 0.2
2017-Jul-21 07:00N 35°31' E 139°56'1 2.0
2017-Jul-21 06:31N 35°30' E 139°55'1 2.6
2017-Jul-21 06:00N 35°30' E 139°54'1 1.7
2017-Jul-21 05:30N 35°29' E 139°55'0 0.1
2017-Jul-21 05:01N 35°29' E 139°55'0 0.2
2017-Jul-21 02:19N 35°29' E 139°54'0 1.0
2017-Jul-21 02:00N 35°29' E 139°54'4 0.1
2017-Jul-19 23:48N 35°29' E 139°58'0 0.7
2017-Jul-19 23:30N 35°28' E 139°58'0 0.1
2017-Jul-19 23:00N 35°28' E 139°58'5 0.2
2017-Jul-19 00:24N 35°32' E 140°02'3 4.5
2017-Jul-18 23:49N 35°32' E 139°59'3 0.1
2017-Jul-17 02:13N 35°29' E 139°58'0 0.2
2017-Jul-17 00:44N 35°29' E 139°58'1 1.8
2017-Jul-17 00:26N 35°29' E 139°57'0 0.2
2017-Jul-16 23:46N 35°29' E 139°57'1 0.3
2017-Jul-16 21:56N 35°30' E 139°57'4 9.2
2017-Jul-16 21:29N 35°32' E 140°01'5 9.8
2017-Jul-16 21:01N 35°36' E 140°05'1 2.0
2017-Jul-16 20:16N 35°36' E 140°07'  
Track history (hours):
 
Tides and Currents Weather Stations Pressure Air Temp Water Temp Dewpoint Dewpoint Depression Visibility Wind Speed Wind Dir Waves Ship Positions

Kitanomaru

Last reported at 2017-Jul-26 08:29 UTC. Time now 2017-Jul-26 08:46 UTC.
Position N 35°28' E 139°58'.

Length 39 m; draft 4 m.

Type: Tug. MMSI: 431000773.

Date/timePositionNaut miles runAvg speedWind from/ knotsBaromVisibWave heightAir tempDewpointWater temp
2017-Jul-26 08:29N 35°28' E 139°58'1 0.5
2017-Jul-26 06:17N 35°29' E 139°59'0 0.0
2017-Jul-26 04:35N 35°29' E 139°59'0 0.0
2017-Jul-26 04:24N 35°29' E 139°59'0 0.0
2017-Jul-26 03:44N 35°29' E 139°59'0 0.0
2017-Jul-26 03:25N 35°29' E 139°59'0 0.0
2017-Jul-26 02:59N 35°29' E 139°59'0 0.9
2017-Jul-26 02:30N 35°28' E 139°58'0 0.3
2017-Jul-26 01:57N 35°28' E 139°58'0 0.0
2017-Jul-25 04:21N 35°28' E 139°58'0 0.6
2017-Jul-25 04:00N 35°29' E 139°58'2 3.5
2017-Jul-25 03:30N 35°30' E 139°57'2 4.5
2017-Jul-25 02:57N 35°29' E 139°54'3 5.8
2017-Jul-25 02:28N 35°31' E 139°57'3 0.1
2017-Jul-24 02:52N 35°29' E 140°00'0 0.2
2017-Jul-24 01:26N 35°29' E 140°00'1 2.2
2017-Jul-24 00:47N 35°30' E 139°59'2 2.6
2017-Jul-23 23:52N 35°32' E 139°59'0 0.5
2017-Jul-23 23:30N 35°32' E 139°60'3 0.1
2017-Jul-23 04:35N 35°32' E 140°03'4 7.7
2017-Jul-23 04:05N 35°32' E 139°58'0 5.4
2017-Jul-23 04:01N 35°32' E 139°58'3 0.1
2017-Jul-22 04:52N 35°30' E 140°01'0 0.6
2017-Jul-22 04:30N 35°30' E 140°01'3 5.8
2017-Jul-22 04:00N 35°31' E 139°58'1 1.0
2017-Jul-22 03:25N 35°32' E 139°58'1 0.2
2017-Jul-21 21:31N 35°33' E 139°60'0 2.8
2017-Jul-21 21:29N 35°33' E 139°60'3 0.3
2017-Jul-21 09:28N 35°31' E 139°56'0 0.4
2017-Jul-21 09:01N 35°31' E 139°56'0 0.1
2017-Jul-21 08:30N 35°31' E 139°56'0 0.0
2017-Jul-21 08:00N 35°31' E 139°56'0 0.1
2017-Jul-21 07:30N 35°31' E 139°56'0 0.2
2017-Jul-21 07:00N 35°31' E 139°56'1 2.0
2017-Jul-21 06:31N 35°30' E 139°55'1 2.6
2017-Jul-21 06:00N 35°30' E 139°54'1 1.7
2017-Jul-21 05:30N 35°29' E 139°55'0 0.1
2017-Jul-21 05:01N 35°29' E 139°55'0 0.2
2017-Jul-21 02:19N 35°29' E 139°54'0 1.0
2017-Jul-21 02:00N 35°29' E 139°54'4 0.1
2017-Jul-19 23:48N 35°29' E 139°58'0 0.7
2017-Jul-19 23:30N 35°28' E 139°58'0 0.1
2017-Jul-19 23:00N 35°28' E 139°58'5 0.2
2017-Jul-19 00:24N 35°32' E 140°02'3 4.5
2017-Jul-18 23:49N 35°32' E 139°59'3 0.1
2017-Jul-17 02:13N 35°29' E 139°58'0 0.2
2017-Jul-17 00:44N 35°29' E 139°58'1 1.8
2017-Jul-17 00:26N 35°29' E 139°57'0 0.2
2017-Jul-16 23:46N 35°29' E 139°57'1 0.3
2017-Jul-16 21:56N 35°30' E 139°57'4 9.2
2017-Jul-16 21:29N 35°32' E 140°01'5 9.8
2017-Jul-16 21:01N 35°36' E 140°05'1 2.0
2017-Jul-16 20:16N 35°36' E 140°07'  

Dump ship's entire track history